ナンディ の空港の天気 - METARとTAF

ナンディ国際空港 ( NFFN / NAN ) - フィジー ナンディ (ビティレブ島)
飛行場実況気象(Metar)
観測時間06/18 07:00 FJT (06/17 19:00 UTC)
風向・風速北東 2m/s
視程10km以上
天気現象
少しの雲 雲底高度 910m
気温20℃
湿度94%
気圧1014hPa
METARNFFN 171900Z 04003KT 9999 FEW030 20/19 Q1014 NOSIG
過去の天気等 Google飛行場航空写真 Wunderground天気予報

過去48時間のMETAR

飛行場予報(TAF)
発表時間: 6/18 05:08 FJT (6/17 17:08 UTC)
予報対象時間: 18日6時 FJT ~ 19日6時 FJT
風向・風速不定 2m/s
視程10km以上
少しの雲 雲底高度 850m
18日9時 FJT ~ 18日11時 FJT に徐々に
風向・風速西北西 5m/s
18日16時 FJT ~ 18日18時 FJT に徐々に
風向・風速東 4m/s
TAF NFFN 171708Z 1718/1818 VRB03KT 9999 FEW028
BECMG 1721/1723 29010KT
BECMG 1804/1806 10007KT